Nearby METAR Reports

 

KCNI - Canton/Cherokee, Georgia, USA
Distance from station: S 22mi, 36km
Updated: Tue, Sep-26-2017 1:35pm EDT
Clear
Clear
 Wind from W
Wind: W 8 mph , 13 km/h
Temperature: 84°F , 29°C
Heat Index: 86°F , 30°C
Dew Point: 66°F , 19°C
Humidity: 55%
Barometer: 30.01 inHg , 1016.3 hPa
Clouds: Clear
Visibility: 10 miles , 16 km
2017/09/26 17:35 KCNI 261735Z AUTO 28007KT 10SM CLR 29/19 A3001 RMK AO2
KDNN - Dalton, Georgia, USA
Distance from station: WNW 24mi, 39km
Updated: Tue, Sep-26-2017 1:55pm EDT
Partly cloudy
Partly cloudy
 Wind from NNW
Wind: NNW 5 mph , 7 km/h
Temperature: 82°F , 28°C
Heat Index: 84°F , 29°C
Dew Point: 64°F , 18°C
Humidity: 55%
Barometer: 30.01 inHg , 1016.3 hPa
Clouds: Partly cloudy
Visibility: 10 miles , 16 km
Cloud details: Partly cloudy 4400 ft
Partly cloudy 6000 ft
2017/09/26 17:55 KDNN 261755Z AUTO 34004KT 10SM SCT044 SCT060 28/18 A3001 RMK AO2
 
KVPC - Cartersville, Georgia, USA
Distance from station: SSW 42mi, 67km
Updated: Tue, Sep-26-2017 1:53pm EDT
Few Clouds
Few Clouds
 Wind from varies
Wind: varies 5 mph , 7 km/h
Temperature: 84°F , 29°C
Heat Index: 85°F , 29°C
Dew Point: 64°F , 18°C
Humidity: 51%
Barometer: 29.99 inHg , 1015.6 hPa
Clouds: Few Clouds
Visibility: 10 miles , 16 km
Cloud details: Few Clouds 5500 ft
2017/09/26 17:53 KVPC 261753Z AUTO VRB04KT 10SM FEW055 29/18 A2999 RMK AO2 SLP144 T02940183 10300 20161 58015
KGVL - Gainesville, Georgia, USA
Distance from station: SE 43mi, 70km
Updated: Tue, Sep-26-2017 1:53pm EDT
Mostly cloudy
Mostly cloudy
 Wind from WNW
Wind: WNW 6 mph , 9 km/h
Temperature: 82°F , 28°C
Heat Index: 83°F , 28°C
Dew Point: 63°F , 17°C
Humidity: 51%
Barometer: 30.01 inHg , 1016.3 hPa
Clouds: Mostly cloudy
Visibility: 10 miles , 16 km
Cloud details: Few Clouds 4300 ft
Mostly cloudy 5500 ft
2017/09/26 17:53 KGVL 261753Z AUTO 30005KT 10SM FEW043 BKN055 28/17 A3001 RMK AO2 SLP146 T02780172 10289 20189 58014
 
KRYY - Marietta Mccolum, Georgia, USA
Distance from station: S 44mi, 70km
Updated: Tue, Sep-26-2017 1:51pm EDT
Mostly cloudy
Mostly cloudy
 Wind from calm
Wind: Calm
Temperature: 84°F , 29°C
Heat Index: 85°F , 29°C
Dew Point: 63°F , 17°C
Humidity: 48%
Barometer: 30.01 inHg , 1016.3 hPa
Clouds: Mostly cloudy
Visibility: 10 miles , 16 km
Cloud details: Mostly cloudy 4900 ft
2017/09/26 17:51 KRYY 261751Z 00000KT 10SM BKN049 29/17 A3001 RMK AO2 SLP160 T02890172 10294 20178 58012
KRMG - Rome, Georgia, USA
Distance from station: WSW 45mi, 73km
Updated: Tue, Sep-26-2017 1:53pm EDT
Few Clouds
Few Clouds
 Wind from N
Wind: N 9 mph , 15 km/h
Temperature: 88°F , 31°C
Heat Index: 90°F , 32°C
Dew Point: 64°F , 18°C
Humidity: 46%
Barometer: 29.98 inHg , 1015.2 hPa
Clouds: Few Clouds
Visibility: 10 miles , 16 km
Cloud details: Few Clouds 5000 ft
2017/09/26 17:53 KRMG 261753Z AUTO 35008KT 10SM FEW050 31/18 A2998 RMK AO2 SLP142 T03110183 10311 20172 58015
 
KMGE - Dobbins Afb/Mari, Georgia, USA
Distance from station: S 50mi, 80km
Updated: Tue, Sep-26-2017 1:56pm EDT
Partly cloudy
Partly cloudy
 Wind from ENE
Wind: ENE 5 mph , 7 km/h
Temperature: 84°F , 29°C
Heat Index: 85°F , 29°C
Dew Point: 63°F , 17°C
Humidity: 48%
Barometer: 29.99 inHg , 1015.6 hPa
Clouds: Partly cloudy
Visibility: 10 miles , 16 km
Cloud details: Partly cloudy 4500 ft
2017/09/26 17:56 KMGE 261756Z 06004KT 10SM SCT045 29/17 A2999 RMK AO2A SLP147 T02910169 10292 20175 58013 $